CGMPW EGNS-EIDW
Flight info
| Callsign | CGMPW |
|---|---|
| Flight time | 0h 33m |
| Altitude | 24000 |
| Route | IOM DCT NUMPI P620 NIMAT NIMAT3R |
| Aircraft | PC24/L-SBDGIRWY/LB2 |
Departure
| Time | 2026-04-30 12:26 |
|---|---|
| Airport | Isle of Man Airport (EGNS) |
Arrival
| Time | 2026-04-30 13:00 |
|---|---|
| Airport | Dublin Airport (EIDW) |
| Time | Latitude | Longitude | Altitude | Speed | Heading |
|---|---|---|---|---|---|
| 2026-04-30 12:19 | 54.08569 | -4.63266 | 35 ft | 0 kts | 43° |
| 2026-04-30 12:24 | 54.08581 | -4.63237 | 35 ft | 6 kts | 65° |
| 2026-04-30 12:24 | 54.08596 | -4.63180 | 35 ft | 6 kts | 60° |
| 2026-04-30 12:24 | 54.08593 | -4.63070 | 35 ft | 14 kts | 132° |
| 2026-04-30 12:25 | 54.08473 | -4.62999 | 34 ft | 20 kts | 166° |
| 2026-04-30 12:25 | 54.08394 | -4.63133 | 34 ft | 19 kts | 262° |
| 2026-04-30 12:25 | 54.08364 | -4.63333 | 36 ft | 15 kts | 209° |
| 2026-04-30 12:25 | 54.08269 | -4.63333 | 37 ft | 13 kts | 166° |
| 2026-04-30 12:26 | 54.08230 | -4.63178 | 35 ft | 23 kts | 77° |
| 2026-04-30 12:26 | 54.08326 | -4.62455 | 31 ft | 106 kts | 78° |
| 2026-04-30 12:26 | 54.08529 | -4.60851 | 328 ft | 158 kts | 77° |
| 2026-04-30 12:26 | 54.08856 | -4.58982 | 1422 ft | 179 kts | 76° |
| 2026-04-30 12:27 | 54.09318 | -4.57035 | 2938 ft | 179 kts | 71° |
| 2026-04-30 12:27 | 54.10330 | -4.55430 | 3827 ft | 233 kts | 28° |
| 2026-04-30 12:27 | 54.12093 | -4.55224 | 4624 ft | 278 kts | 347° |
| 2026-04-30 12:27 | 54.13835 | -4.56913 | 5422 ft | 303 kts | 313° |
| 2026-04-30 12:28 | 54.14889 | -4.60109 | 6210 ft | 320 kts | 281° |
| 2026-04-30 12:28 | 54.14923 | -4.63781 | 6962 ft | 286 kts | 255° |
| 2026-04-30 12:28 | 54.14448 | -4.66833 | 7653 ft | 258 kts | 248° |
| 2026-04-30 12:28 | 54.13939 | -4.69887 | 8394 ft | 278 kts | 252° |
| 2026-04-30 12:29 | 54.13671 | -4.73270 | 9161 ft | 298 kts | 264° |
| 2026-04-30 12:29 | 54.13746 | -4.76905 | 9983 ft | 314 kts | 269° |
| 2026-04-30 12:29 | 54.13903 | -4.80694 | 10718 ft | 326 kts | 268° |
| 2026-04-30 12:29 | 54.13953 | -4.84621 | 11457 ft | 336 kts | 265° |
| 2026-04-30 12:30 | 54.13949 | -4.88605 | 12191 ft | 345 kts | 265° |
| 2026-04-30 12:30 | 54.13984 | -4.92761 | 12961 ft | 354 kts | 265° |
| 2026-04-30 12:30 | 54.14041 | -4.97002 | 13753 ft | 361 kts | 265° |
| 2026-04-30 12:30 | 54.14079 | -5.01315 | 14485 ft | 366 kts | 264° |
| 2026-04-30 12:31 | 54.14109 | -5.05692 | 15204 ft | 371 kts | 265° |
| 2026-04-30 12:31 | 54.14156 | -5.10088 | 15930 ft | 371 kts | 265° |
| 2026-04-30 12:31 | 54.14193 | -5.14517 | 16679 ft | 375 kts | 265° |
| 2026-04-30 12:31 | 54.14223 | -5.18970 | 17445 ft | 377 kts | 265° |
| 2026-04-30 12:32 | 54.14244 | -5.21946 | 17965 ft | 378 kts | 264° |
| 2026-04-30 12:32 | 54.14274 | -5.26436 | 18724 ft | 380 kts | 264° |
| 2026-04-30 12:32 | 54.14305 | -5.30951 | 19441 ft | 380 kts | 264° |
| 2026-04-30 12:32 | 54.14332 | -5.35473 | 20159 ft | 382 kts | 264° |
| 2026-04-30 12:33 | 54.14358 | -5.40022 | 20896 ft | 383 kts | 264° |
| 2026-04-30 12:33 | 54.14381 | -5.44567 | 21658 ft | 384 kts | 264° |
| 2026-04-30 12:33 | 54.14291 | -5.49095 | 22400 ft | 375 kts | 253° |
| 2026-04-30 12:33 | 54.13422 | -5.53099 | 23159 ft | 359 kts | 235° |
| 2026-04-30 12:34 | 54.12175 | -5.56766 | 23867 ft | 356 kts | 229° |
| 2026-04-30 12:34 | 54.10654 | -5.60120 | 24180 ft | 362 kts | 222° |
| 2026-04-30 12:34 | 54.08822 | -5.63178 | 23858 ft | 371 kts | 214° |
| 2026-04-30 12:34 | 54.06768 | -5.65702 | 23333 ft | 359 kts | 206° |
| 2026-04-30 12:35 | 54.04566 | -5.67660 | 22862 ft | 355 kts | 199° |
| 2026-04-30 12:35 | 54.02312 | -5.69395 | 22386 ft | 354 kts | 200° |
| 2026-04-30 12:35 | 54.00090 | -5.71207 | 21895 ft | 352 kts | 201° |
| 2026-04-30 12:35 | 53.97841 | -5.72735 | 21432 ft | 345 kts | 194° |
| 2026-04-30 12:36 | 53.95542 | -5.73795 | 20979 ft | 340 kts | 188° |
| 2026-04-30 12:36 | 53.93251 | -5.74396 | 20538 ft | 336 kts | 182° |
| 2026-04-30 12:36 | 53.90932 | -5.74604 | 20100 ft | 332 kts | 179° |
| 2026-04-30 12:36 | 53.88623 | -5.74774 | 19654 ft | 331 kts | 180° |
| 2026-04-30 12:37 | 53.86327 | -5.74951 | 19219 ft | 329 kts | 180° |
| 2026-04-30 12:37 | 53.84040 | -5.75111 | 18785 ft | 328 kts | 179° |
| 2026-04-30 12:37 | 53.81764 | -5.75267 | 18338 ft | 327 kts | 179° |
| 2026-04-30 12:37 | 53.79495 | -5.75427 | 17888 ft | 325 kts | 179° |
| 2026-04-30 12:38 | 53.77239 | -5.75590 | 17456 ft | 323 kts | 179° |
| 2026-04-30 12:38 | 53.75001 | -5.75745 | 17025 ft | 321 kts | 179° |
| 2026-04-30 12:38 | 53.72776 | -5.75904 | 16523 ft | 321 kts | 179° |
| 2026-04-30 12:38 | 53.70595 | -5.76382 | 15868 ft | 320 kts | 190° |
| 2026-04-30 12:39 | 53.68501 | -5.77650 | 15433 ft | 322 kts | 200° |
| 2026-04-30 12:39 | 53.66574 | -5.79667 | 15006 ft | 329 kts | 211° |
| 2026-04-30 12:39 | 53.64916 | -5.82387 | 14573 ft | 337 kts | 224° |
| 2026-04-30 12:39 | 53.63623 | -5.85722 | 14133 ft | 345 kts | 236° |
| 2026-04-30 12:40 | 53.62786 | -5.89552 | 13651 ft | 352 kts | 250° |
| 2026-04-30 12:40 | 53.62264 | -5.93562 | 13185 ft | 349 kts | 251° |
| 2026-04-30 12:40 | 53.61726 | -5.97526 | 12725 ft | 346 kts | 251° |
| 2026-04-30 12:40 | 53.61193 | -6.01473 | 12271 ft | 345 kts | 251° |
| 2026-04-30 12:41 | 53.60666 | -6.05404 | 11681 ft | 342 kts | 251° |
| 2026-04-30 12:41 | 53.60146 | -6.09278 | 11222 ft | 336 kts | 251° |
| 2026-04-30 12:41 | 53.59624 | -6.13111 | 10778 ft | 335 kts | 251° |
| 2026-04-30 12:41 | 53.59102 | -6.16938 | 10337 ft | 334 kts | 252° |
| 2026-04-30 12:42 | 53.58592 | -6.20698 | 9891 ft | 332 kts | 252° |
| 2026-04-30 12:42 | 53.58076 | -6.24476 | 9437 ft | 329 kts | 252° |
| 2026-04-30 12:42 | 53.57574 | -6.28203 | 8898 ft | 325 kts | 254° |
| 2026-04-30 12:42 | 53.57660 | -6.32035 | 8425 ft | 331 kts | 280° |
| 2026-04-30 12:43 | 53.58387 | -6.35718 | 8101 ft | 330 kts | 292° |
| 2026-04-30 12:43 | 53.59546 | -6.38889 | 8092 ft | 308 kts | 306° |
| 2026-04-30 12:43 | 53.60977 | -6.41375 | 8058 ft | 286 kts | 319° |
| 2026-04-30 12:43 | 53.62592 | -6.43212 | 8017 ft | 276 kts | 332° |
| 2026-04-30 12:44 | 53.64191 | -6.44929 | 7991 ft | 272 kts | 319° |
| 2026-04-30 12:44 | 53.65501 | -6.47226 | 7994 ft | 272 kts | 305° |
| 2026-04-30 12:44 | 53.66501 | -6.49914 | 7998 ft | 270 kts | 297° |
| 2026-04-30 12:44 | 53.67459 | -6.52648 | 8004 ft | 271 kts | 298° |
| 2026-04-30 12:45 | 53.68418 | -6.55387 | 8000 ft | 272 kts | 297° |
| 2026-04-30 12:45 | 53.69276 | -6.58209 | 7987 ft | 269 kts | 287° |
| 2026-04-30 12:45 | 53.69732 | -6.61241 | 7987 ft | 265 kts | 273° |
| 2026-04-30 12:45 | 53.69799 | -6.64312 | 8003 ft | 260 kts | 263° |
| 2026-04-30 12:46 | 53.69767 | -6.67366 | 8000 ft | 260 kts | 264° |
| 2026-04-30 12:46 | 53.69746 | -6.70382 | 8003 ft | 259 kts | 264° |
| 2026-04-30 12:46 | 53.69694 | -6.73423 | 8009 ft | 257 kts | 258° |
| 2026-04-30 12:46 | 53.69309 | -6.76324 | 8003 ft | 251 kts | 245° |
| 2026-04-30 12:47 | 53.68594 | -6.78974 | 8027 ft | 246 kts | 233° |
| 2026-04-30 12:47 | 53.67689 | -6.81391 | 8023 ft | 244 kts | 232° |
| 2026-04-30 12:47 | 53.66793 | -6.83827 | 8014 ft | 244 kts | 232° |
| 2026-04-30 12:47 | 53.65896 | -6.86255 | 8004 ft | 244 kts | 232° |
| 2026-04-30 12:48 | 53.64917 | -6.88563 | 7977 ft | 240 kts | 222° |
| 2026-04-30 12:48 | 53.63703 | -6.90443 | 7952 ft | 235 kts | 211° |
| 2026-04-30 12:48 | 53.62318 | -6.91862 | 7941 ft | 231 kts | 201° |
| 2026-04-30 12:48 | 53.60860 | -6.92947 | 7923 ft | 226 kts | 189° |
| 2026-04-30 12:49 | 53.59326 | -6.92791 | 7896 ft | 221 kts | 166° |
| 2026-04-30 12:49 | 53.57895 | -6.91931 | 7913 ft | 213 kts | 152° |
| 2026-04-30 12:49 | 53.56780 | -6.90589 | 7931 ft | 185 kts | 139° |
| 2026-04-30 12:49 | 53.55986 | -6.89016 | 7840 ft | 170 kts | 127° |
| 2026-04-30 12:50 | 53.55461 | -6.87315 | 7721 ft | 163 kts | 117° |
| 2026-04-30 12:50 | 53.55156 | -6.85395 | 7515 ft | 179 kts | 104° |
| 2026-04-30 12:50 | 53.55052 | -6.83172 | 7437 ft | 204 kts | 101° |
| 2026-04-30 12:50 | 53.54921 | -6.80633 | 7456 ft | 233 kts | 101° |
| 2026-04-30 12:51 | 53.54766 | -6.77778 | 7534 ft | 252 kts | 100° |
| 2026-04-30 12:51 | 53.54608 | -6.74767 | 7219 ft | 261 kts | 100° |
| 2026-04-30 12:51 | 53.54421 | -6.71726 | 6627 ft | 261 kts | 107° |
| 2026-04-30 12:51 | 53.53527 | -6.69256 | 6162 ft | 245 kts | 142° |
| 2026-04-30 12:52 | 53.52036 | -6.68013 | 5855 ft | 231 kts | 158° |
| 2026-04-30 12:52 | 53.50529 | -6.67350 | 5559 ft | 218 kts | 169° |
| 2026-04-30 12:52 | 53.49040 | -6.67265 | 5274 ft | 213 kts | 180° |
| 2026-04-30 12:52 | 53.47604 | -6.67314 | 4992 ft | 198 kts | 166° |
| 2026-04-30 12:53 | 53.46460 | -6.66246 | 4738 ft | 187 kts | 139° |
| 2026-04-30 12:53 | 53.45789 | -6.64416 | 4487 ft | 186 kts | 112° |
| 2026-04-30 12:53 | 53.45602 | -6.62284 | 4248 ft | 181 kts | 103° |
| 2026-04-30 12:53 | 53.45473 | -6.60228 | 4010 ft | 174 kts | 103° |
| 2026-04-30 12:54 | 53.45367 | -6.58251 | 3783 ft | 167 kts | 103° |
| 2026-04-30 12:54 | 53.45263 | -6.56364 | 3560 ft | 156 kts | 103° |
| 2026-04-30 12:54 | 53.45176 | -6.54681 | 3350 ft | 134 kts | 104° |
| 2026-04-30 12:54 | 53.45096 | -6.53226 | 3170 ft | 119 kts | 105° |
| 2026-04-30 12:55 | 53.45017 | -6.51867 | 3026 ft | 117 kts | 106° |
| 2026-04-30 12:55 | 53.44941 | -6.50515 | 2879 ft | 115 kts | 105° |
| 2026-04-30 12:55 | 53.44867 | -6.49176 | 2735 ft | 115 kts | 105° |
| 2026-04-30 12:55 | 53.44797 | -6.47824 | 2578 ft | 117 kts | 104° |
| 2026-04-30 12:56 | 53.44719 | -6.46453 | 2430 ft | 121 kts | 103° |
| 2026-04-30 12:56 | 53.44653 | -6.45090 | 2253 ft | 116 kts | 104° |
| 2026-04-30 12:56 | 53.44574 | -6.43734 | 2099 ft | 118 kts | 102° |
| 2026-04-30 12:56 | 53.44502 | -6.42375 | 1944 ft | 117 kts | 101° |
| 2026-04-30 12:57 | 53.44426 | -6.40999 | 1782 ft | 119 kts | 101° |
| 2026-04-30 12:57 | 53.44350 | -6.39615 | 1629 ft | 119 kts | 100° |
| 2026-04-30 12:57 | 53.44277 | -6.38227 | 1459 ft | 120 kts | 100° |
| 2026-04-30 12:57 | 53.44196 | -6.36841 | 1299 ft | 119 kts | 99° |
| 2026-04-30 12:58 | 53.44126 | -6.35472 | 1137 ft | 116 kts | 97° |
| 2026-04-30 12:58 | 53.44055 | -6.34107 | 972 ft | 120 kts | 98° |
| 2026-04-30 12:58 | 53.43974 | -6.32723 | 813 ft | 124 kts | 96° |
| 2026-04-30 12:58 | 53.43895 | -6.31274 | 657 ft | 123 kts | 96° |
| 2026-04-30 12:59 | 53.43811 | -6.29839 | 483 ft | 123 kts | 96° |
| 2026-04-30 12:59 | 53.43737 | -6.28475 | 302 ft | 111 kts | 94° |
| 2026-04-30 12:59 | 53.43675 | -6.27278 | 226 ft | 93 kts | 92° |
| 2026-04-30 12:59 | 53.43638 | -6.26501 | 224 ft | 57 kts | 94° |
| 2026-04-30 13:00 | 53.43621 | -6.26185 | 223 ft | 0 kts | 92° |
| 2026-04-30 13:00 | 53.43615 | -6.26114 | 223 ft | 22 kts | 99° |
| 2026-04-30 13:00 | 53.43545 | -6.25791 | 221 ft | 32 kts | 147° |
| 2026-04-30 13:00 | 53.43353 | -6.25652 | 220 ft | 29 kts | 155° |
| 2026-04-30 13:01 | 53.43217 | -6.25474 | 220 ft | 24 kts | 82° |
| 2026-04-30 13:01 | 53.43303 | -6.25328 | 220 ft | 11 kts | 333° |
| 2026-04-30 13:01 | 53.43310 | -6.25334 | 220 ft | 0 kts | 329° |